createdAt,value
2023-04-10T00:00:01.641Z,94.2
2023-04-10T00:10:06.640Z,94.3
2023-04-10T00:15:01.719Z,93.2
2023-04-10T00:20:01.598Z,92.4
2023-04-10T00:25:01.758Z,92.5
2023-04-10T00:30:01.639Z,87.8
2023-04-10T00:35:01.730Z,84.4
2023-04-10T00:40:01.606Z,80.2
2023-04-10T00:45:01.728Z,80.8
2023-04-10T00:50:01.699Z,73.9
2023-04-10T00:55:01.758Z,73.4
2023-04-10T01:00:01.624Z,67.5
2023-04-10T01:05:01.685Z,64.6
2023-04-10T01:10:01.639Z,64.5
2023-04-10T01:15:01.701Z,72.0
2023-04-10T01:20:01.631Z,64.7
2023-04-10T01:25:01.735Z,74.0
2023-04-10T01:45:01.801Z,75.4
2023-04-10T01:55:01.702Z,77.5
2023-04-10T02:00:01.683Z,75.8
2023-04-10T02:05:03.209Z,64.9
2023-04-10T02:10:01.573Z,65.5
2023-04-10T02:25:01.405Z,71.6
2023-04-10T02:30:06.081Z,69.3
2023-04-10T02:35:01.313Z,53.9
2023-04-10T02:40:01.175Z,47.8
2023-04-10T02:45:02.226Z,53.7
2023-04-10T02:50:01.189Z,55.0
2023-04-10T02:55:01.213Z,56.1
2023-04-10T03:00:01.092Z,64.2
2023-04-10T03:05:06.174Z,68.0
2023-04-10T03:10:01.059Z,63.4
2023-04-10T03:15:01.129Z,52.5
2023-04-10T03:20:00.987Z,42.6
2023-04-10T03:25:01.194Z,40.5
2023-04-10T03:30:01.175Z,35.6
2023-04-10T03:35:01.180Z,29.0
2023-04-10T03:40:01.057Z,26.7
2023-04-10T03:45:01.149Z,33.9
2023-04-10T03:50:01.061Z,38.4
2023-04-10T03:55:06.117Z,43.3
2023-04-10T04:00:07.114Z,41.5
2023-04-10T04:05:06.313Z,47.4
2023-04-10T04:10:01.050Z,43.0
2023-04-10T04:15:01.218Z,36.7
2023-04-10T04:20:01.101Z,31.1
2023-04-10T04:25:01.201Z,33.6
2023-04-10T04:30:01.049Z,30.4
2023-04-10T04:35:01.187Z,23.8
2023-04-10T04:40:01.065Z,23.2
2023-04-10T04:45:01.135Z,19.0
2023-04-10T04:50:00.982Z,25.9
2023-04-10T04:55:01.166Z,34.4
2023-04-10T05:00:01.016Z,45.3
2023-04-10T05:05:01.253Z,47.9
2023-04-10T05:10:01.072Z,61.6
2023-04-10T05:15:01.149Z,62.2
2023-04-10T05:20:01.049Z,57.7
2023-04-10T05:25:01.152Z,55.8
2023-04-10T05:35:01.188Z,66.2
2023-04-10T05:40:01.139Z,73.0
2023-04-10T05:50:01.109Z,87.5
2023-04-10T05:55:06.307Z,83.8
2023-04-10T06:00:01.154Z,83.2
2023-04-10T06:05:01.359Z,79.7
2023-04-10T06:10:01.148Z,78.9
2023-04-10T06:15:01.258Z,80.4
2023-04-10T06:20:01.238Z,84.9
2023-04-10T06:25:01.304Z,86.8
2023-04-10T06:30:01.309Z,92.0
2023-04-10T06:35:02.468Z,97.5
2023-04-10T06:40:01.434Z,101.5
2023-04-10T06:45:01.389Z,103.5
2023-04-10T06:50:01.265Z,105.3
2023-04-10T06:55:01.396Z,101.5
2023-04-10T07:00:01.220Z,95.4
2023-04-10T07:05:01.240Z,86.9
2023-04-10T07:10:01.083Z,79.4
2023-04-10T07:15:01.254Z,73.8
2023-04-10T07:20:01.116Z,70.4
2023-04-10T07:25:01.235Z,71.6
2023-04-10T07:30:01.137Z,72.5
2023-04-10T07:35:06.181Z,72.5
2023-04-10T07:40:01.169Z,73.8
2023-04-10T07:45:01.167Z,74.7
2023-04-10T07:50:01.178Z,72.7
2023-04-10T07:55:01.254Z,72.0
2023-04-10T08:00:01.106Z,72.1
2023-04-10T08:05:06.529Z,71.2
2023-04-10T08:10:06.139Z,71.6
2023-04-10T08:20:01.162Z,72.4
2023-04-10T08:25:01.248Z,72.7
2023-04-10T08:30:01.151Z,73.4
2023-04-10T08:35:01.167Z,74.0
2023-04-10T08:40:01.101Z,72.8
2023-04-10T08:45:01.311Z,73.7
2023-04-10T08:50:01.144Z,73.8
2023-04-10T08:55:06.179Z,73.9
2023-04-10T09:00:20.069Z,73.6
2023-04-10T09:05:06.258Z,77.6
2023-04-10T09:10:01.079Z,80.3
2023-04-10T09:15:01.158Z,81.8
2023-04-10T09:20:01.095Z,81.2
2023-04-10T09:25:01.188Z,81.2
2023-04-10T09:30:01.174Z,80.9
2023-04-10T09:35:01.165Z,78.3
2023-04-10T09:40:01.388Z,78.2
2023-04-10T09:45:01.258Z,80.9
2023-04-10T09:55:01.311Z,80.8
2023-04-10T10:05:01.371Z,83.6
2023-04-10T10:10:06.042Z,83.9
2023-04-10T10:15:02.177Z,86.9
2023-04-10T10:35:01.089Z,96.2
2023-04-10T10:40:05.995Z,100.0
2023-04-10T11:05:01.585Z,93.4
2023-04-10T11:10:06.381Z,96.5
2023-04-10T11:15:01.572Z,99.1
2023-04-10T11:20:01.446Z,100.8
2023-04-10T11:25:01.550Z,101.3
2023-04-10T11:35:05.619Z,103.6
2023-04-10T11:40:01.377Z,102.8
2023-04-10T11:45:01.601Z,102.9
2023-04-10T12:05:01.437Z,103.0
2023-04-10T12:10:01.089Z,104.0
2023-04-10T12:15:01.172Z,102.2
2023-04-10T12:20:01.276Z,100.0
2023-04-10T12:25:02.269Z,99.5
2023-04-10T12:30:01.023Z,97.3
2023-04-10T12:35:01.234Z,96.2
2023-04-10T12:40:01.189Z,97.0
2023-04-10T12:45:01.714Z,93.6
2023-04-10T12:50:01.080Z,92.4
2023-04-10T13:00:01.271Z,90.4
2023-04-10T13:05:01.190Z,87.4
2023-04-10T13:10:06.160Z,92.2
2023-04-10T13:20:01.088Z,94.9
2023-04-10T13:25:01.201Z,96.7
2023-04-10T13:30:01.106Z,96.4
2023-04-10T13:35:01.178Z,96.2
2023-04-10T13:40:01.184Z,97.0
2023-04-10T13:45:01.297Z,96.4
2023-04-10T13:50:01.011Z,95.5
2023-04-10T13:55:01.255Z,95.9
2023-04-10T14:00:01.129Z,95.4
2023-04-10T14:05:01.210Z,94.2
2023-04-10T14:10:01.083Z,91.4
2023-04-10T14:15:01.167Z,90.2
2023-04-10T14:20:02.176Z,90.0
2023-04-10T14:25:13.766Z,88.3
2023-04-10T14:30:01.072Z,86.1
2023-04-10T14:35:01.091Z,85.7
2023-04-10T14:40:02.054Z,83.6
2023-04-10T14:45:01.176Z,82.4
2023-04-10T14:50:01.078Z,80.8
2023-04-10T14:55:01.407Z,80.7
2023-04-10T15:00:01.076Z,79.3
2023-04-10T15:05:01.179Z,78.8
2023-04-10T15:10:01.080Z,76.8
2023-04-10T15:20:01.079Z,73.2
2023-04-10T15:25:02.258Z,72.5
2023-04-10T15:30:01.076Z,73.6
2023-04-10T15:35:01.692Z,75.0
2023-04-10T15:40:01.134Z,76.9
2023-04-10T15:45:01.231Z,78.2
2023-04-10T15:50:01.119Z,78.8
2023-04-10T15:55:01.167Z,78.1
2023-04-10T16:00:01.156Z,78.2
2023-04-10T16:40:01.617Z,71.3
2023-04-10T16:50:01.535Z,70.4
2023-04-10T17:00:06.939Z,71.2
2023-04-10T17:05:01.462Z,70.8
2023-04-10T17:10:02.431Z,70.7
2023-04-10T17:20:01.032Z,73.2
2023-04-10T17:25:01.166Z,70.0
2023-04-10T17:35:01.890Z,69.4
2023-04-10T17:40:01.541Z,70.6
2023-04-10T17:45:01.573Z,70.8
2023-04-10T17:50:01.500Z,70.2
2023-04-10T18:00:01.513Z,70.0
2023-04-10T18:05:01.608Z,69.7
2023-04-10T18:10:01.411Z,70.0
2023-04-10T18:35:01.520Z,73.8
2023-04-10T18:55:02.740Z,81.4
2023-04-10T19:05:01.646Z,80.5
2023-04-10T19:25:01.078Z,79.8
2023-04-10T19:30:00.954Z,81.3
2023-04-10T19:35:01.028Z,80.6
2023-04-10T19:40:00.962Z,82.5
2023-04-10T19:45:01.114Z,80.9
2023-04-10T19:50:01.063Z,78.8
2023-04-10T19:55:01.221Z,75.3
2023-04-10T20:00:01.004Z,71.5
2023-04-10T20:05:01.581Z,74.9
2023-04-10T20:10:01.133Z,77.8
2023-04-10T20:15:01.134Z,88.8
2023-04-10T20:20:00.982Z,102.1
2023-04-10T20:45:01.732Z,102.0
2023-04-10T20:50:01.714Z,109.3
2023-04-10T20:55:01.836Z,105.1
2023-04-10T21:00:01.983Z,112.4
2023-04-10T21:05:01.922Z,106.7
2023-04-10T21:10:02.041Z,102.8
2023-04-10T21:15:01.879Z,98.0
2023-04-10T21:20:01.808Z,98.0
2023-04-10T21:25:02.889Z,88.8
2023-04-10T21:30:01.744Z,90.8
2023-04-10T21:35:02.791Z,95.2
2023-04-10T21:40:01.811Z,99.0
2023-04-10T21:45:01.809Z,105.0
2023-04-10T21:50:01.677Z,111.7
2023-04-10T21:55:03.422Z,117.1
2023-04-10T22:00:01.818Z,120.2
2023-04-10T22:05:01.862Z,123.0
2023-04-10T22:10:01.652Z,121.3
2023-04-10T22:15:01.778Z,121.3
2023-04-10T22:20:01.674Z,121.9
2023-04-10T22:30:04.823Z,111.8
2023-04-10T22:35:01.953Z,100.8
2023-04-10T22:40:01.679Z,88.0
2023-04-10T22:45:01.795Z,74.6
2023-04-10T22:50:01.811Z,62.6
2023-04-10T22:55:01.790Z,59.2
2023-04-10T23:00:01.599Z,61.3
2023-04-10T23:05:01.784Z,68.6
2023-04-10T23:10:01.671Z,81.0
2023-04-10T23:15:01.792Z,90.6
2023-04-10T23:20:01.648Z,107.6
2023-04-10T23:25:01.852Z,122.2
2023-04-10T23:30:01.695Z,129.7
2023-04-10T23:35:01.780Z,138.8
2023-04-10T23:40:01.659Z,147.6
2023-04-10T23:45:01.722Z,167.8
2023-04-10T23:50:06.678Z,180.6
2023-04-10T23:55:01.775Z,195.1
